sensor_id;sensor_type;location;lat;lon;timestamp;pressure;altitude;pressure_sealevel;temperature;humidity
34696;BME280;20918;51.138;17.370;2023-03-23T00:00:06;99578.60;;;6.55;75.54
34696;BME280;20918;51.138;17.370;2023-03-23T00:03:10;99578.08;;;6.55;75.62
34696;BME280;20918;51.138;17.370;2023-03-23T00:06:11;99578.59;;;6.54;76.05
34696;BME280;20918;51.138;17.370;2023-03-23T00:09:19;99577.50;;;6.52;76.06
34696;BME280;20918;51.138;17.370;2023-03-23T00:12:24;99584.88;;;6.56;76.18
34696;BME280;20918;51.138;17.370;2023-03-23T00:15:34;99589.03;;;6.60;76.44
34696;BME280;20918;51.138;17.370;2023-03-23T00:18:38;99587.90;;;6.62;76.41
34696;BME280;20918;51.138;17.370;2023-03-23T00:21:44;99582.83;;;6.65;76.57
34696;BME280;20918;51.138;17.370;2023-03-23T00:24:44;99579.80;;;6.69;76.52
34696;BME280;20918;51.138;17.370;2023-03-23T00:27:45;99573.89;;;6.71;76.45
34696;BME280;20918;51.138;17.370;2023-03-23T00:31:07;99570.55;;;6.72;76.80
34696;BME280;20918;51.138;17.370;2023-03-23T00:34:09;99575.34;;;6.77;76.75
34696;BME280;20918;51.138;17.370;2023-03-23T00:37:12;99571.16;;;6.84;76.60
34696;BME280;20918;51.138;17.370;2023-03-23T00:40:13;99571.24;;;6.90;76.98
34696;BME280;20918;51.138;17.370;2023-03-23T00:43:14;99570.63;;;6.97;77.07
34696;BME280;20918;51.138;17.370;2023-03-23T00:46:16;99569.27;;;7.04;76.91
34696;BME280;20918;51.138;17.370;2023-03-23T00:49:20;99567.36;;;7.09;76.82
34696;BME280;20918;51.138;17.370;2023-03-23T00:52:25;99563.92;;;7.13;76.72
34696;BME280;20918;51.138;17.370;2023-03-23T00:55:25;99554.86;;;7.15;76.79
34696;BME280;20918;51.138;17.370;2023-03-23T00:58:26;99552.42;;;7.15;76.68
34696;BME280;20918;51.138;17.370;2023-03-23T01:01:30;99554.09;;;7.14;76.78
34696;BME280;20918;51.138;17.370;2023-03-23T01:04:31;99546.71;;;7.14;76.76
34696;BME280;20918;51.138;17.370;2023-03-23T01:07:32;99549.64;;;7.15;76.81
34696;BME280;20918;51.138;17.370;2023-03-23T01:10:35;99552.06;;;7.17;76.83
34696;BME280;20918;51.138;17.370;2023-03-23T01:13:39;99553.23;;;7.21;76.85
34696;BME280;20918;51.138;17.370;2023-03-23T01:16:49;99547.40;;;7.25;76.90
34696;BME280;20918;51.138;17.370;2023-03-23T01:19:50;99542.71;;;7.28;77.01
34696;BME280;20918;51.138;17.370;2023-03-23T01:22:58;99543.80;;;7.31;77.09
34696;BME280;20918;51.138;17.370;2023-03-23T01:26:05;99538.73;;;7.34;76.90
34696;BME280;20918;51.138;17.370;2023-03-23T01:29:11;99533.58;;;7.34;76.90
34696;BME280;20918;51.138;17.370;2023-03-23T01:32:15;99538.56;;;7.34;77.03
34696;BME280;20918;51.138;17.370;2023-03-23T01:35:16;99539.94;;;7.36;77.05
34696;BME280;20918;51.138;17.370;2023-03-23T01:38:18;99535.30;;;7.40;77.12
34696;BME280;20918;51.138;17.370;2023-03-23T01:41:22;99523.83;;;7.45;77.06
34696;BME280;20918;51.138;17.370;2023-03-23T01:47:31;99530.68;;;7.55;77.07
34696;BME280;20918;51.138;17.370;2023-03-23T01:50:43;99528.65;;;7.59;76.98
34696;BME280;20918;51.138;17.370;2023-03-23T01:53:56;99533.64;;;7.64;76.93
34696;BME280;20918;51.138;17.370;2023-03-23T01:57:01;99526.48;;;7.67;77.00
34696;BME280;20918;51.138;17.370;2023-03-23T02:00:05;99521.59;;;7.63;77.02
34696;BME280;20918;51.138;17.370;2023-03-23T02:03:14;99514.58;;;7.59;76.99
34696;BME280;20918;51.138;17.370;2023-03-23T02:06:18;99511.90;;;7.60;77.00
34696;BME280;20918;51.138;17.370;2023-03-23T02:09:54;99511.45;;;7.61;77.07
34696;BME280;20918;51.138;17.370;2023-03-23T02:12:55;99504.95;;;7.60;77.10
34696;BME280;20918;51.138;17.370;2023-03-23T02:28:29;99492.45;;;7.72;77.04
34696;BME280;20918;51.138;17.370;2023-03-23T02:31:48;99491.73;;;7.74;76.98
34696;BME280;20918;51.138;17.370;2023-03-23T02:35:00;99489.37;;;7.75;77.06
34696;BME280;20918;51.138;17.370;2023-03-23T02:38:07;99492.63;;;7.77;76.92
34696;BME280;20918;51.138;17.370;2023-03-23T02:41:09;99497.17;;;7.76;76.90
34696;BME280;20918;51.138;17.370;2023-03-23T02:44:12;99495.63;;;7.74;76.87
34696;BME280;20918;51.138;17.370;2023-03-23T02:47:21;99499.98;;;7.73;76.89
34696;BME280;20918;51.138;17.370;2023-03-23T02:50:23;99499.41;;;7.70;76.94
34696;BME280;20918;51.138;17.370;2023-03-23T02:53:39;99498.55;;;7.61;76.83
34696;BME280;20918;51.138;17.370;2023-03-23T02:56:42;99488.67;;;7.56;76.96
34696;BME280;20918;51.138;17.370;2023-03-23T02:59:49;99481.70;;;7.49;77.06
34696;BME280;20918;51.138;17.370;2023-03-23T03:02:51;99478.07;;;7.50;77.42
34696;BME280;20918;51.138;17.370;2023-03-23T03:06:30;99479.66;;;7.57;77.54
34696;BME280;20918;51.138;17.370;2023-03-23T03:22:21;99482.56;;;7.91;77.24
34696;BME280;20918;51.138;17.370;2023-03-23T03:25:25;99486.83;;;7.98;77.20
34696;BME280;20918;51.138;17.370;2023-03-23T03:28:34;99479.95;;;8.05;77.03
34696;BME280;20918;51.138;17.370;2023-03-23T03:31:51;99479.55;;;8.10;77.04
34696;BME280;20918;51.138;17.370;2023-03-23T03:35:00;99472.98;;;8.16;76.97
34696;BME280;20918;51.138;17.370;2023-03-23T03:38:05;99469.04;;;8.19;76.89
34696;BME280;20918;51.138;17.370;2023-03-23T03:41:06;99462.64;;;8.23;76.80
34696;BME280;20918;51.138;17.370;2023-03-23T03:44:07;99463.98;;;8.27;76.81
34696;BME280;20918;51.138;17.370;2023-03-23T03:47:09;99451.21;;;8.31;76.78
34696;BME280;20918;51.138;17.370;2023-03-23T03:50:16;99450.83;;;8.36;76.80
34696;BME280;20918;51.138;17.370;2023-03-23T03:53:17;99447.23;;;8.42;76.81
34696;BME280;20918;51.138;17.370;2023-03-23T03:56:27;99451.10;;;8.48;76.69
34696;BME280;20918;51.138;17.370;2023-03-23T03:59:39;99450.89;;;8.55;76.74
34696;BME280;20918;51.138;17.370;2023-03-23T04:03:12;99448.89;;;8.61;76.53
34696;BME280;20918;51.138;17.370;2023-03-23T04:06:34;99450.83;;;8.65;76.59
34696;BME280;20918;51.138;17.370;2023-03-23T04:09:36;99443.86;;;8.69;76.51
34696;BME280;20918;51.138;17.370;2023-03-23T04:12:40;99441.60;;;8.74;76.35
34696;BME280;20918;51.138;17.370;2023-03-23T04:16:13;99437.14;;;8.81;76.15
34696;BME280;20918;51.138;17.370;2023-03-23T04:19:13;99437.08;;;8.87;75.96
34696;BME280;20918;51.138;17.370;2023-03-23T04:22:14;99439.80;;;8.93;75.86
34696;BME280;20918;51.138;17.370;2023-03-23T04:25:20;99435.38;;;8.98;75.65
34696;BME280;20918;51.138;17.370;2023-03-23T04:28:26;99433.41;;;9.01;75.57
34696;BME280;20918;51.138;17.370;2023-03-23T04:31:48;99434.06;;;9.03;75.61
34696;BME280;20918;51.138;17.370;2023-03-23T04:35:04;99437.52;;;9.06;75.49
34696;BME280;20918;51.138;17.370;2023-03-23T04:38:14;99438.50;;;9.11;75.33
34696;BME280;20918;51.138;17.370;2023-03-23T04:41:16;99438.73;;;9.17;75.18
34696;BME280;20918;51.138;17.370;2023-03-23T04:44:24;99439.25;;;9.23;75.04
34696;BME280;20918;51.138;17.370;2023-03-23T04:47:36;99443.23;;;9.28;74.87
34696;BME280;20918;51.138;17.370;2023-03-23T04:50:53;99439.72;;;9.32;74.60
34696;BME280;20918;51.138;17.370;2023-03-23T04:53:58;99443.94;;;9.37;74.41
34696;BME280;20918;51.138;17.370;2023-03-23T04:56:59;99443.95;;;9.42;74.22
34696;BME280;20918;51.138;17.370;2023-03-23T05:00:01;99446.64;;;9.46;74.19
34696;BME280;20918;51.138;17.370;2023-03-23T05:03:21;99448.17;;;9.50;74.08
34696;BME280;20918;51.138;17.370;2023-03-23T05:06:23;99442.98;;;9.54;73.92
34696;BME280;20918;51.138;17.370;2023-03-23T05:09:25;99444.13;;;9.57;73.66
34696;BME280;20918;51.138;17.370;2023-03-23T05:12:26;99444.30;;;9.60;73.73
34696;BME280;20918;51.138;17.370;2023-03-23T05:15:35;99446.02;;;9.62;73.58
34696;BME280;20918;51.138;17.370;2023-03-23T05:18:37;99444.91;;;9.66;73.43
34696;BME280;20918;51.138;17.370;2023-03-23T05:21:39;99432.69;;;9.68;73.26
34696;BME280;20918;51.138;17.370;2023-03-23T05:24:42;99437.50;;;9.71;73.37
34696;BME280;20918;51.138;17.370;2023-03-23T05:27:46;99433.52;;;9.73;73.17
34696;BME280;20918;51.138;17.370;2023-03-23T05:30:56;99426.66;;;9.77;73.18
34696;BME280;20918;51.138;17.370;2023-03-23T05:33:58;99420.98;;;9.80;72.94
34696;BME280;20918;51.138;17.370;2023-03-23T05:37:24;99429.10;;;9.86;72.89
34696;BME280;20918;51.138;17.370;2023-03-23T05:40:32;99427.06;;;9.92;72.78
34696;BME280;20918;51.138;17.370;2023-03-23T05:43:39;99424.53;;;9.97;72.71
34696;BME280;20918;51.138;17.370;2023-03-23T05:46:45;99426.44;;;10.02;72.39
34696;BME280;20918;51.138;17.370;2023-03-23T05:49:46;99424.75;;;10.05;72.40
34696;BME280;20918;51.138;17.370;2023-03-23T05:52:50;99423.59;;;10.09;72.31
34696;BME280;20918;51.138;17.370;2023-03-23T05:55:52;99428.80;;;10.15;72.05
34696;BME280;20918;51.138;17.370;2023-03-23T05:59:03;99431.36;;;10.18;71.83
34696;BME280;20918;51.138;17.370;2023-03-23T06:02:04;99430.65;;;10.23;71.74
34696;BME280;20918;51.138;17.370;2023-03-23T06:05:06;99431.77;;;10.28;71.84
34696;BME280;20918;51.138;17.370;2023-03-23T06:08:08;99423.75;;;10.32;71.66
34696;BME280;20918;51.138;17.370;2023-03-23T06:11:09;99427.01;;;10.38;71.66
34696;BME280;20918;51.138;17.370;2023-03-23T06:14:15;99431.77;;;10.42;71.32
34696;BME280;20918;51.138;17.370;2023-03-23T06:17:19;99431.33;;;10.46;71.47
34696;BME280;20918;51.138;17.370;2023-03-23T06:20:21;99425.78;;;10.49;71.28
34696;BME280;20918;51.138;17.370;2023-03-23T06:23:25;99413.66;;;10.53;71.01
34696;BME280;20918;51.138;17.370;2023-03-23T06:26:28;99410.11;;;10.59;70.82
34696;BME280;20918;51.138;17.370;2023-03-23T06:29:37;99406.67;;;10.67;70.47
34696;BME280;20918;51.138;17.370;2023-03-23T06:32:38;99411.19;;;10.78;70.54
34696;BME280;20918;51.138;17.370;2023-03-23T06:35:42;99410.69;;;10.91;70.39
34696;BME280;20918;51.138;17.370;2023-03-23T06:38:50;99411.67;;;11.06;70.34
34696;BME280;20918;51.138;17.370;2023-03-23T06:41:56;99409.36;;;11.22;69.98
34696;BME280;20918;51.138;17.370;2023-03-23T06:44:56;99408.17;;;11.42;69.99
34696;BME280;20918;51.138;17.370;2023-03-23T06:47:57;99404.61;;;11.64;69.72
34696;BME280;20918;51.138;17.370;2023-03-23T06:50:58;99403.61;;;11.87;68.90
34696;BME280;20918;51.138;17.370;2023-03-23T06:53:59;99399.55;;;12.11;68.44
34696;BME280;20918;51.138;17.370;2023-03-23T06:57:01;99401.92;;;12.44;68.28
34696;BME280;20918;51.138;17.370;2023-03-23T07:00:02;99403.95;;;12.66;67.20
34696;BME280;20918;51.138;17.370;2023-03-23T07:03:06;99411.77;;;12.82;66.67
34696;BME280;20918;51.138;17.370;2023-03-23T07:06:07;99411.69;;;12.94;66.62
34696;BME280;20918;51.138;17.370;2023-03-23T07:09:16;99406.10;;;13.01;65.61
34696;BME280;20918;51.138;17.370;2023-03-23T07:12:17;99398.71;;;13.06;65.00
34696;BME280;20918;51.138;17.370;2023-03-23T07:15:20;99397.05;;;13.12;64.64
34696;BME280;20918;51.138;17.370;2023-03-23T07:18:23;99391.63;;;13.21;64.36
34696;BME280;20918;51.138;17.370;2023-03-23T07:21:26;99395.20;;;13.34;63.91
34696;BME280;20918;51.138;17.370;2023-03-23T07:24:27;99400.15;;;13.51;63.75
34696;BME280;20918;51.138;17.370;2023-03-23T07:27:40;99398.19;;;13.66;63.15
34696;BME280;20918;51.138;17.370;2023-03-23T07:30:44;99402.22;;;13.76;62.45
34696;BME280;20918;51.138;17.370;2023-03-23T07:33:44;99404.17;;;13.97;62.78
34696;BME280;20918;51.138;17.370;2023-03-23T07:36:45;99399.13;;;14.35;61.69
34696;BME280;20918;51.138;17.370;2023-03-23T07:39:47;99397.71;;;14.53;61.49
34696;BME280;20918;51.138;17.370;2023-03-23T07:42:56;99396.39;;;14.57;60.64
34696;BME280;20918;51.138;17.370;2023-03-23T07:46:16;99388.52;;;14.53;60.69
34696;BME280;20918;51.138;17.370;2023-03-23T07:49:30;99387.55;;;14.47;60.28
34696;BME280;20918;51.138;17.370;2023-03-23T07:52:40;99389.43;;;14.43;60.15
34696;BME280;20918;51.138;17.370;2023-03-23T07:55:41;99386.38;;;14.43;60.29
34696;BME280;20918;51.138;17.370;2023-03-23T07:59:20;99385.14;;;14.49;59.79
34696;BME280;20918;51.138;17.370;2023-03-23T08:02:25;99386.20;;;14.70;59.61
34696;BME280;20918;51.138;17.370;2023-03-23T08:06:01;99386.43;;;15.22;59.54
34696;BME280;20918;51.138;17.370;2023-03-23T08:09:36;99387.39;;;15.82;58.66
34696;BME280;20918;51.138;17.370;2023-03-23T08:13:13;99390.11;;;16.36;57.26
34696;BME280;20918;51.138;17.370;2023-03-23T08:16:33;99386.06;;;16.42;56.32
34696;BME280;20918;51.138;17.370;2023-03-23T08:20:00;99382.27;;;16.21;55.83
34696;BME280;20918;51.138;17.370;2023-03-23T08:23:25;99379.27;;;16.01;55.86
34696;BME280;20918;51.138;17.370;2023-03-23T08:26:48;99370.58;;;15.82;55.84
34696;BME280;20918;51.138;17.370;2023-03-23T08:30:07;99363.08;;;15.66;56.24
34696;BME280;20918;51.138;17.370;2023-03-23T08:33:17;99360.07;;;15.55;56.36
34696;BME280;20918;51.138;17.370;2023-03-23T08:36:58;99351.44;;;15.48;56.22
34696;BME280;20918;51.138;17.370;2023-03-23T08:40:17;99341.23;;;15.48;56.34
34696;BME280;20918;51.138;17.370;2023-03-23T08:43:46;99335.30;;;15.55;55.89
34696;BME280;20918;51.138;17.370;2023-03-23T08:47:06;99339.06;;;15.98;55.98
34696;BME280;20918;51.138;17.370;2023-03-23T08:53:58;99341.92;;;17.03;54.08
34696;BME280;20918;51.138;17.370;2023-03-23T08:57:31;99356.45;;;17.70;53.45
34696;BME280;20918;51.138;17.370;2023-03-23T09:01:01;99357.02;;;18.30;52.33
34696;BME280;20918;51.138;17.370;2023-03-23T09:04:34;99358.48;;;18.37;51.46
34696;BME280;20918;51.138;17.370;2023-03-23T09:07:58;99366.89;;;18.14;51.17
34696;BME280;20918;51.138;17.370;2023-03-23T09:11:08;99374.45;;;17.90;51.41
34696;BME280;20918;51.138;17.370;2023-03-23T09:14:10;99374.00;;;17.74;51.14
34696;BME280;20918;51.138;17.370;2023-03-23T09:17:13;99370.56;;;17.90;51.36
34696;BME280;20918;51.138;17.370;2023-03-23T09:20:26;99369.76;;;18.18;50.83
34696;BME280;20918;51.138;17.370;2023-03-23T09:23:27;99369.80;;;18.17;50.03
34696;BME280;20918;51.138;17.370;2023-03-23T09:26:31;99370.19;;;18.10;50.31
34696;BME280;20918;51.138;17.370;2023-03-23T09:29:34;99363.93;;;18.06;50.22
34696;BME280;20918;51.138;17.370;2023-03-23T09:32:38;99365.89;;;18.01;49.69
34696;BME280;20918;51.138;17.370;2023-03-23T09:35:39;99374.22;;;18.13;49.93
34696;BME280;20918;51.138;17.370;2023-03-23T09:38:54;99367.07;;;18.27;49.72
34696;BME280;20918;51.138;17.370;2023-03-23T09:48:50;99369.95;;;18.31;48.46
34696;BME280;20918;51.138;17.370;2023-03-23T09:51:55;99366.23;;;18.33;48.47
34696;BME280;20918;51.138;17.370;2023-03-23T09:55:00;99366.60;;;18.21;47.94
34696;BME280;20918;51.138;17.370;2023-03-23T10:04:13;99388.17;;;17.70;48.56
34696;BME280;20918;51.138;17.370;2023-03-23T10:07:23;99382.90;;;17.66;48.63
34696;BME280;20918;51.138;17.370;2023-03-23T10:10:31;99377.55;;;17.90;49.13
34696;BME280;20918;51.138;17.370;2023-03-23T10:16:55;99375.06;;;18.34;47.45
34696;BME280;20918;51.138;17.370;2023-03-23T10:20:02;99372.77;;;18.20;47.18
34696;BME280;20918;51.138;17.370;2023-03-23T10:29:50;99370.61;;;18.20;48.83
34696;BME280;20918;51.138;17.370;2023-03-23T10:32:56;99368.52;;;18.65;49.14
34696;BME280;20918;51.138;17.370;2023-03-23T10:36:03;99365.23;;;19.03;48.61
34696;BME280;20918;51.138;17.370;2023-03-23T10:39:13;99361.73;;;19.32;47.84
34696;BME280;20918;51.138;17.370;2023-03-23T10:42:30;99364.27;;;19.49;47.66
34696;BME280;20918;51.138;17.370;2023-03-23T10:45:32;99366.96;;;19.45;46.41
34696;BME280;20918;51.138;17.370;2023-03-23T10:48:36;99372.87;;;19.20;45.65
34696;BME280;20918;51.138;17.370;2023-03-23T10:51:42;99374.89;;;18.98;45.55
34696;BME280;20918;51.138;17.370;2023-03-23T10:54:54;99385.48;;;18.70;45.99
34696;BME280;20918;51.138;17.370;2023-03-23T10:58:00;99383.40;;;18.50;46.16
34696;BME280;20918;51.138;17.370;2023-03-23T11:01:03;99380.71;;;18.33;46.32
34696;BME280;20918;51.138;17.370;2023-03-23T11:04:10;99385.02;;;18.18;46.54
34696;BME280;20918;51.138;17.370;2023-03-23T11:07:13;99393.42;;;18.03;46.59
34696;BME280;20918;51.138;17.370;2023-03-23T11:10:22;99403.05;;;17.80;46.74
34696;BME280;20918;51.138;17.370;2023-03-23T11:13:30;99402.10;;;17.61;46.85
34696;BME280;20918;51.138;17.370;2023-03-23T11:16:41;99402.30;;;17.48;47.26
34696;BME280;20918;51.138;17.370;2023-03-23T11:19:42;99403.89;;;17.37;47.44
34696;BME280;20918;51.138;17.370;2023-03-23T11:22:43;99405.67;;;17.39;47.94
34696;BME280;20918;51.138;17.370;2023-03-23T11:28:58;99404.23;;;17.55;47.83
34696;BME280;20918;51.138;17.370;2023-03-23T11:35:05;99399.05;;;17.71;47.77
34696;BME280;20918;51.138;17.370;2023-03-23T11:38:11;99404.02;;;17.80;48.17
34696;BME280;20918;51.138;17.370;2023-03-23T11:41:18;99403.27;;;17.88;47.88
34696;BME280;20918;51.138;17.370;2023-03-23T11:44:22;99401.83;;;18.00;47.75
34696;BME280;20918;51.138;17.370;2023-03-23T11:47:32;99405.91;;;18.16;47.78
34696;BME280;20918;51.138;17.370;2023-03-23T11:56:44;99407.27;;;18.43;46.97
34696;BME280;20918;51.138;17.370;2023-03-23T11:59:50;99409.59;;;18.31;46.87
34696;BME280;20918;51.138;17.370;2023-03-23T12:12:47;99404.91;;;17.81;46.95
34696;BME280;20918;51.138;17.370;2023-03-23T12:15:53;99405.92;;;17.70;46.99
34696;BME280;20918;51.138;17.370;2023-03-23T12:19:03;99406.73;;;17.60;46.69
34696;BME280;20918;51.138;17.370;2023-03-23T12:32:00;99415.01;;;17.27;47.43
34696;BME280;20918;51.138;17.370;2023-03-23T12:38:20;99415.59;;;17.15;48.37
34696;BME280;20918;51.138;17.370;2023-03-23T12:44:35;99413.10;;;17.16;48.65
34696;BME280;20918;51.138;17.370;2023-03-23T12:47:44;99408.80;;;17.20;48.60
34696;BME280;20918;51.138;17.370;2023-03-23T12:57:13;99407.49;;;17.25;48.09
34696;BME280;20918;51.138;17.370;2023-03-23T13:03:33;99408.67;;;17.32;48.38
34696;BME280;20918;51.138;17.370;2023-03-23T13:06:42;99405.63;;;17.32;48.28
34696;BME280;20918;51.138;17.370;2023-03-23T13:09:53;99409.25;;;17.31;48.64
34696;BME280;20918;51.138;17.370;2023-03-23T13:12:56;99410.84;;;17.28;48.52
34696;BME280;20918;51.138;17.370;2023-03-23T13:19:25;99412.46;;;17.17;48.69
34696;BME280;20918;51.138;17.370;2023-03-23T13:26:16;99408.61;;;17.13;49.19
34696;BME280;20918;51.138;17.370;2023-03-23T13:32:46;99411.79;;;17.12;49.51
34696;BME280;20918;51.138;17.370;2023-03-23T13:35:51;99415.33;;;17.10;49.90
34696;BME280;20918;51.138;17.370;2023-03-23T13:38:52;99410.85;;;17.05;49.89
34696;BME280;20918;51.138;17.370;2023-03-23T13:42:02;99401.23;;;17.03;50.27
34696;BME280;20918;51.138;17.370;2023-03-23T13:48:42;99398.10;;;17.02;50.38
34696;BME280;20918;51.138;17.370;2023-03-23T13:54:45;99408.03;;;17.03;50.53
34696;BME280;20918;51.138;17.370;2023-03-23T13:57:50;99405.23;;;17.05;50.79
34696;BME280;20918;51.138;17.370;2023-03-23T14:04:06;99408.21;;;17.08;50.85
34696;BME280;20918;51.138;17.370;2023-03-23T14:07:10;99409.25;;;17.11;50.63
34696;BME280;20918;51.138;17.370;2023-03-23T14:10:14;99409.94;;;17.10;50.65
34696;BME280;20918;51.138;17.370;2023-03-23T14:13:20;99411.27;;;17.14;50.96
34696;BME280;20918;51.138;17.370;2023-03-23T14:16:26;99407.73;;;17.16;50.77
34696;BME280;20918;51.138;17.370;2023-03-23T14:19:28;99406.91;;;17.15;50.84
34696;BME280;20918;51.138;17.370;2023-03-23T14:22:36;99410.21;;;17.18;51.14
34696;BME280;20918;51.138;17.370;2023-03-23T14:25:38;99406.88;;;17.18;51.68
34696;BME280;20918;51.138;17.370;2023-03-23T14:28:41;99408.68;;;17.16;52.02
34696;BME280;20918;51.138;17.370;2023-03-23T14:31:44;99407.50;;;17.09;52.30
34696;BME280;20918;51.138;17.370;2023-03-23T14:34:48;99409.14;;;17.02;52.73
34696;BME280;20918;51.138;17.370;2023-03-23T14:37:50;99411.77;;;16.95;52.92
34696;BME280;20918;51.138;17.370;2023-03-23T14:40:51;99405.62;;;16.88;53.19
34696;BME280;20918;51.138;17.370;2023-03-23T14:43:52;99403.73;;;16.84;53.17
34696;BME280;20918;51.138;17.370;2023-03-23T14:46:53;99408.48;;;16.80;53.39
34696;BME280;20918;51.138;17.370;2023-03-23T14:50:01;99405.42;;;16.77;53.47
34696;BME280;20918;51.138;17.370;2023-03-23T14:56:38;99399.16;;;16.81;53.74
34696;BME280;20918;51.138;17.370;2023-03-23T14:59:43;99399.96;;;16.87;53.61
34696;BME280;20918;51.138;17.370;2023-03-23T15:02:52;99405.58;;;16.88;53.54
34696;BME280;20918;51.138;17.370;2023-03-23T15:05:57;99405.18;;;16.90;53.52
34696;BME280;20918;51.138;17.370;2023-03-23T15:09:00;99401.64;;;16.89;53.46
34696;BME280;20918;51.138;17.370;2023-03-23T15:12:04;99398.92;;;16.86;53.36
34696;BME280;20918;51.138;17.370;2023-03-23T15:15:06;99395.62;;;16.81;53.17
34696;BME280;20918;51.138;17.370;2023-03-23T15:18:20;99398.55;;;16.76;53.25
34696;BME280;20918;51.138;17.370;2023-03-23T15:21:28;99399.16;;;16.74;53.48
34696;BME280;20918;51.138;17.370;2023-03-23T15:24:37;99402.35;;;16.74;53.79
34696;BME280;20918;51.138;17.370;2023-03-23T15:27:40;99393.86;;;16.69;53.85
34696;BME280;20918;51.138;17.370;2023-03-23T15:30:48;99393.44;;;16.64;53.93
34696;BME280;20918;51.138;17.370;2023-03-23T15:33:49;99391.01;;;16.59;54.04
34696;BME280;20918;51.138;17.370;2023-03-23T15:36:56;99386.58;;;16.58;53.92
34696;BME280;20918;51.138;17.370;2023-03-23T15:39:58;99377.30;;;16.54;53.65
34696;BME280;20918;51.138;17.370;2023-03-23T15:43:06;99379.89;;;16.52;53.91
34696;BME280;20918;51.138;17.370;2023-03-23T15:49:10;99375.23;;;16.52;54.20
34696;BME280;20918;51.138;17.370;2023-03-23T15:52:12;99375.27;;;16.55;54.25
34696;BME280;20918;51.138;17.370;2023-03-23T15:55:24;99381.09;;;16.55;54.25
34696;BME280;20918;51.138;17.370;2023-03-23T15:58:25;99381.30;;;16.48;54.06
34696;BME280;20918;51.138;17.370;2023-03-23T16:01:28;99383.34;;;16.37;53.94
34696;BME280;20918;51.138;17.370;2023-03-23T16:04:29;99378.03;;;16.29;54.20
34696;BME280;20918;51.138;17.370;2023-03-23T16:07:33;99378.83;;;16.24;54.37
34696;BME280;20918;51.138;17.370;2023-03-23T16:10:36;99381.61;;;16.18;54.60
34696;BME280;20918;51.138;17.370;2023-03-23T16:13:39;99386.06;;;16.13;54.57
34696;BME280;20918;51.138;17.370;2023-03-23T16:16:44;99391.74;;;16.08;54.50
34696;BME280;20918;51.138;17.370;2023-03-23T16:19:47;99385.27;;;16.02;54.45
34696;BME280;20918;51.138;17.370;2023-03-23T16:22:49;99389.81;;;15.95;54.55
34696;BME280;20918;51.138;17.370;2023-03-23T16:25:50;99391.76;;;15.88;54.80
34696;BME280;20918;51.138;17.370;2023-03-23T16:28:51;99387.56;;;15.84;54.82
34696;BME280;20918;51.138;17.370;2023-03-23T16:31:54;99388.05;;;15.80;54.96
34696;BME280;20918;51.138;17.370;2023-03-23T16:35:04;99391.06;;;15.74;55.16
34696;BME280;20918;51.138;17.370;2023-03-23T16:38:10;99394.66;;;15.68;55.36
34696;BME280;20918;51.138;17.370;2023-03-23T16:41:34;99401.92;;;15.64;55.29
34696;BME280;20918;51.138;17.370;2023-03-23T16:44:34;99401.34;;;15.60;55.54
34696;BME280;20918;51.138;17.370;2023-03-23T16:47:35;99402.41;;;15.55;55.66
34696;BME280;20918;51.138;17.370;2023-03-23T16:50:39;99400.00;;;15.49;55.81
34696;BME280;20918;51.138;17.370;2023-03-23T16:53:40;99408.21;;;15.45;55.96
34696;BME280;20918;51.138;17.370;2023-03-23T16:56:40;99412.77;;;15.42;56.09
34696;BME280;20918;51.138;17.370;2023-03-23T16:59:45;99413.66;;;15.37;56.27
34696;BME280;20918;51.138;17.370;2023-03-23T17:02:47;99417.88;;;15.32;56.45
34696;BME280;20918;51.138;17.370;2023-03-23T17:05:48;99416.41;;;15.30;56.51
34696;BME280;20918;51.138;17.370;2023-03-23T17:08:49;99421.12;;;15.27;56.71
34696;BME280;20918;51.138;17.370;2023-03-23T17:11:52;99423.20;;;15.23;56.77
34696;BME280;20918;51.138;17.370;2023-03-23T17:14:53;99430.08;;;15.20;56.88
34696;BME280;20918;51.138;17.370;2023-03-23T17:17:55;99436.88;;;15.16;57.06
34696;BME280;20918;51.138;17.370;2023-03-23T17:20:58;99439.16;;;15.12;57.10
34696;BME280;20918;51.138;17.370;2023-03-23T17:23:59;99441.02;;;15.09;57.31
34696;BME280;20918;51.138;17.370;2023-03-23T17:26:59;99445.30;;;15.07;57.45
34696;BME280;20918;51.138;17.370;2023-03-23T17:30:00;99443.43;;;15.03;57.47
34696;BME280;20918;51.138;17.370;2023-03-23T17:33:01;99443.56;;;15.00;57.59
34696;BME280;20918;51.138;17.370;2023-03-23T17:36:02;99448.30;;;14.98;57.72
34696;BME280;20918;51.138;17.370;2023-03-23T17:39:12;99449.05;;;14.95;57.76
34696;BME280;20918;51.138;17.370;2023-03-23T17:42:37;99450.56;;;14.94;57.91
34696;BME280;20918;51.138;17.370;2023-03-23T17:45:37;99453.21;;;14.92;58.09
34696;BME280;20918;51.138;17.370;2023-03-23T17:48:38;99458.89;;;14.89;58.04
34696;BME280;20918;51.138;17.370;2023-03-23T17:51:38;99458.38;;;14.87;58.10
34696;BME280;20918;51.138;17.370;2023-03-23T17:54:39;99454.93;;;14.83;58.25
34696;BME280;20918;51.138;17.370;2023-03-23T17:57:40;99454.98;;;14.79;58.45
34696;BME280;20918;51.138;17.370;2023-03-23T18:00:41;99458.98;;;14.76;58.49
34696;BME280;20918;51.138;17.370;2023-03-23T18:03:41;99457.48;;;14.74;58.56
34696;BME280;20918;51.138;17.370;2023-03-23T18:06:45;99458.29;;;14.72;58.58
34696;BME280;20918;51.138;17.370;2023-03-23T18:09:46;99465.36;;;14.69;58.68
34696;BME280;20918;51.138;17.370;2023-03-23T18:12:47;99477.36;;;14.66;58.79
34696;BME280;20918;51.138;17.370;2023-03-23T18:15:48;99482.52;;;14.60;59.02
34696;BME280;20918;51.138;17.370;2023-03-23T18:18:49;99482.92;;;14.55;59.22
34696;BME280;20918;51.138;17.370;2023-03-23T18:21:49;99491.14;;;14.51;59.20
34696;BME280;20918;51.138;17.370;2023-03-23T18:24:50;99492.36;;;14.46;59.32
34696;BME280;20918;51.138;17.370;2023-03-23T18:27:50;99489.89;;;14.42;59.48